createdAt,value
2019-02-09T00:00:38.666Z,3.20
2019-02-09T00:03:08.659Z,3.53
2019-02-09T00:05:37.716Z,4.60
2019-02-09T00:08:08.780Z,5.17
2019-02-09T00:10:37.830Z,6.47
2019-02-09T00:13:06.892Z,7.83
2019-02-09T00:15:36.111Z,4.20
2019-02-09T00:18:06.305Z,3.43
2019-02-09T00:20:35.362Z,4.87
2019-02-09T00:23:05.420Z,6.00
2019-02-09T00:25:34.475Z,6.90
2019-02-09T00:28:03.538Z,3.67
2019-02-09T00:30:32.592Z,5.43
2019-02-09T00:33:01.646Z,2.47
2019-02-09T00:35:30.703Z,4.67
2019-02-09T00:37:59.762Z,6.50
2019-02-09T00:40:30.615Z,8.80
2019-02-09T00:42:59.668Z,5.90
2019-02-09T00:45:28.995Z,4.97
2019-02-09T00:47:58.050Z,7.43
2019-02-09T00:50:27.113Z,5.03
2019-02-09T00:52:56.166Z,6.13
2019-02-09T00:55:26.745Z,7.17
2019-02-09T00:57:55.976Z,4.50
2019-02-09T01:00:32.441Z,5.43
2019-02-09T01:03:01.564Z,5.07
2019-02-09T01:05:41.101Z,8.67
2019-02-09T01:08:10.318Z,3.90
2019-02-09T01:10:39.371Z,7.63
2019-02-09T01:13:08.427Z,4.87
2019-02-09T01:15:37.652Z,10.53
2019-02-09T01:18:06.714Z,6.33
2019-02-09T01:20:36.086Z,5.63
2019-02-09T01:23:05.411Z,6.97
2019-02-09T01:25:34.465Z,7.37
2019-02-09T01:28:03.595Z,7.63
2019-02-09T01:30:32.675Z,6.53
2019-02-09T01:33:01.730Z,3.73
2019-02-09T01:35:30.783Z,5.03
2019-02-09T01:37:59.839Z,10.77
2019-02-09T01:40:29.935Z,6.60
2019-02-09T01:42:58.992Z,3.87
2019-02-09T01:45:32.684Z,14.17
2019-02-09T01:48:01.744Z,10.53
2019-02-09T01:50:34.129Z,6.57
2019-02-09T01:53:03.179Z,7.73
2019-02-09T01:55:32.239Z,8.03
2019-02-09T01:58:01.299Z,9.20
2019-02-09T02:00:35.250Z,6.17
2019-02-09T02:03:04.582Z,7.13
2019-02-09T02:05:33.632Z,8.57
2019-02-09T02:08:02.686Z,8.30
2019-02-09T02:10:38.908Z,9.87
2019-02-09T02:13:10.635Z,9.80
2019-02-09T02:15:40.678Z,7.93
2019-02-09T02:18:10.070Z,6.03
2019-02-09T02:20:39.124Z,9.90
2019-02-09T02:23:08.183Z,11.23
2019-02-09T02:25:37.235Z,6.40
2019-02-09T02:28:06.295Z,9.77
2019-02-09T02:30:38.237Z,4.27
2019-02-09T02:33:08.596Z,9.33
2019-02-09T02:35:38.590Z,6.00
2019-02-09T02:38:07.634Z,8.80
2019-02-09T02:40:36.684Z,7.80
2019-02-09T02:43:05.743Z,10.00
2019-02-09T02:45:35.049Z,9.17
2019-02-09T02:48:04.098Z,9.00
2019-02-09T02:50:33.170Z,8.30
2019-02-09T02:53:02.214Z,7.17
2019-02-09T02:55:33.184Z,10.53
2019-02-09T02:58:02.235Z,7.93
2019-02-09T03:00:33.777Z,10.70
2019-02-09T03:03:02.817Z,7.87
2019-02-09T03:05:31.871Z,6.90
2019-02-09T03:08:00.935Z,7.70
2019-02-09T03:10:29.988Z,6.70
2019-02-09T03:12:59.046Z,9.23
2019-02-09T03:15:35.456Z,8.57
2019-02-09T03:18:05.077Z,10.03
2019-02-09T03:20:34.138Z,10.17
2019-02-09T03:23:03.186Z,3.30
2019-02-09T03:25:36.345Z,8.40
2019-02-09T03:28:05.548Z,8.63
2019-02-09T03:30:46.364Z,7.60
2019-02-09T03:33:05.420Z,9.70
2019-02-09T03:35:34.436Z,7.77
2019-02-09T03:38:03.493Z,9.40
2019-02-09T03:40:32.544Z,9.57
2019-02-09T03:43:01.599Z,9.20
2019-02-09T03:45:33.550Z,12.20
2019-02-09T03:48:02.674Z,13.53
2019-02-09T03:50:33.327Z,12.20
2019-02-09T03:53:02.370Z,11.80
2019-02-09T03:55:31.492Z,10.03
2019-02-09T03:58:00.549Z,13.80
2019-02-09T04:00:31.720Z,22.20
2019-02-09T04:03:02.739Z,14.77
2019-02-09T04:05:31.745Z,14.20
2019-02-09T04:08:00.811Z,15.13
2019-02-09T04:10:29.864Z,10.47
2019-02-09T04:12:58.955Z,16.00
2019-02-09T04:15:29.013Z,12.23
2019-02-09T04:17:58.071Z,17.17
2019-02-09T04:20:27.130Z,12.87
2019-02-09T04:22:56.188Z,13.13
2019-02-09T04:25:25.246Z,10.00
2019-02-09T04:27:54.305Z,14.83
2019-02-09T04:30:28.972Z,12.53
2019-02-09T04:32:58.200Z,11.23
2019-02-09T04:35:27.384Z,13.40
2019-02-09T04:37:56.437Z,14.80
2019-02-09T04:40:31.765Z,14.60
2019-02-09T04:43:00.830Z,14.53
2019-02-09T04:45:29.880Z,10.67
2019-02-09T04:47:58.954Z,15.60
2019-02-09T04:50:28.370Z,13.73
2019-02-09T04:52:57.422Z,17.40
2019-02-09T04:55:27.515Z,12.13
2019-02-09T04:57:56.592Z,10.83
2019-02-09T05:00:28.453Z,16.13
2019-02-09T05:02:57.686Z,12.17
2019-02-09T05:05:26.912Z,14.73
2019-02-09T05:07:55.970Z,15.07
2019-02-09T05:10:25.877Z,12.73
2019-02-09T05:12:54.940Z,14.87
2019-02-09T05:15:24.266Z,15.97
2019-02-09T05:17:53.330Z,12.93
2019-02-09T05:20:25.365Z,12.43
2019-02-09T05:22:55.092Z,20.07
2019-02-09T05:25:24.151Z,17.30
2019-02-09T05:27:53.210Z,15.17
2019-02-09T05:30:25.543Z,17.50
2019-02-09T05:32:54.770Z,18.60
2019-02-09T05:35:23.889Z,17.30
2019-02-09T05:37:52.949Z,13.63
2019-02-09T05:40:26.696Z,12.57
2019-02-09T05:42:55.758Z,15.03
2019-02-09T05:45:30.451Z,14.27
2019-02-09T05:47:59.511Z,11.97
2019-02-09T05:50:28.577Z,17.87
2019-02-09T05:52:57.629Z,13.20
2019-02-09T05:55:26.690Z,10.70
2019-02-09T05:57:55.763Z,13.70
2019-02-09T06:00:37.275Z,13.37
2019-02-09T06:03:06.338Z,14.70
2019-02-09T06:05:35.463Z,16.67
2019-02-09T06:08:04.789Z,13.70
2019-02-09T06:10:33.845Z,14.57
2019-02-09T06:13:02.905Z,13.93
2019-02-09T06:15:31.962Z,15.63
2019-02-09T06:18:01.020Z,14.57
2019-02-09T06:20:31.090Z,14.93
2019-02-09T06:23:00.154Z,18.33
2019-02-09T06:25:29.213Z,16.60
2019-02-09T06:27:58.599Z,10.20
2019-02-09T06:30:30.466Z,12.30
2019-02-09T06:32:59.524Z,12.97
2019-02-09T06:35:29.291Z,11.77
2019-02-09T06:37:58.931Z,18.47
2019-02-09T06:40:27.992Z,14.17
2019-02-09T06:42:57.046Z,14.03
2019-02-09T06:45:27.408Z,14.43
2019-02-09T06:48:20.263Z,15.80
2019-02-09T06:50:49.487Z,13.00
2019-02-09T06:53:18.586Z,11.63
2019-02-09T06:55:47.615Z,13.77
2019-02-09T06:58:16.905Z,15.60
2019-02-09T07:00:45.974Z,17.73
2019-02-09T07:03:15.035Z,14.97
2019-02-09T07:05:44.096Z,18.10
2019-02-09T07:08:13.148Z,16.80
2019-02-09T07:10:42.215Z,25.97
2019-02-09T07:13:11.351Z,16.67
2019-02-09T07:15:40.408Z,19.93
2019-02-09T07:18:09.466Z,19.27
2019-02-09T07:20:38.528Z,18.90
2019-02-09T07:23:07.751Z,27.87
2019-02-09T07:25:36.812Z,17.37
2019-02-09T07:28:06.135Z,20.83
2019-02-09T07:30:36.334Z,23.23
2019-02-09T07:33:07.300Z,25.17
2019-02-09T07:35:36.356Z,17.70
2019-02-09T07:38:05.585Z,22.80
2019-02-09T07:40:34.645Z,23.10
2019-02-09T07:43:03.873Z,19.73
2019-02-09T07:45:36.320Z,17.07
2019-02-09T07:48:06.616Z,15.57
2019-02-09T07:50:35.671Z,22.23
2019-02-09T07:53:04.732Z,14.27
2019-02-09T07:55:34.703Z,19.43
2019-02-09T07:58:03.764Z,24.73
2019-02-09T08:00:35.384Z,29.77
2019-02-09T08:03:04.686Z,19.17
2019-02-09T08:05:34.182Z,18.47
2019-02-09T08:08:03.256Z,20.23
2019-02-09T08:10:37.510Z,28.03
2019-02-09T08:13:10.395Z,22.83
2019-02-09T08:15:39.451Z,20.47
2019-02-09T08:18:09.461Z,19.63
2019-02-09T08:20:38.522Z,24.00
2019-02-09T08:23:11.785Z,22.90
2019-02-09T08:25:42.161Z,22.03
2019-02-09T08:28:13.029Z,21.13
2019-02-09T08:30:48.384Z,26.53
2019-02-09T08:33:17.448Z,21.43
2019-02-09T08:35:46.505Z,19.73
2019-02-09T08:38:17.000Z,18.73
2019-02-09T08:40:46.087Z,19.60
2019-02-09T08:43:15.171Z,19.63
2019-02-09T08:45:44.238Z,24.53
2019-02-09T08:48:13.292Z,23.10
2019-02-09T08:50:49.895Z,19.30
2019-02-09T08:53:18.950Z,22.00
2019-02-09T08:55:48.017Z,16.33
2019-02-09T08:58:17.076Z,14.30
2019-02-09T09:00:46.143Z,23.73
2019-02-09T09:03:15.201Z,16.20
2019-02-09T09:05:46.121Z,15.07
2019-02-09T09:08:15.110Z,15.23
2019-02-09T09:10:44.164Z,22.33
2019-02-09T09:13:13.307Z,24.00
2019-02-09T09:15:46.071Z,18.47
2019-02-09T09:18:15.133Z,17.40
2019-02-09T09:20:48.957Z,22.70
2019-02-09T09:23:18.017Z,28.37
2019-02-09T09:25:47.081Z,21.67
2019-02-09T09:28:16.140Z,20.73
2019-02-09T09:30:45.202Z,23.10
2019-02-09T09:33:14.256Z,15.27
2019-02-09T09:35:43.316Z,14.83
2019-02-09T09:38:12.369Z,15.73
2019-02-09T09:40:43.892Z,18.27
2019-02-09T09:43:12.951Z,22.33
2019-02-09T09:45:44.121Z,19.97
2019-02-09T09:48:19.296Z,15.60
2019-02-09T09:50:48.429Z,16.60
2019-02-09T09:53:17.475Z,22.83
2019-02-09T09:55:46.535Z,22.07
2019-02-09T09:58:15.604Z,19.43
2019-02-09T10:00:44.664Z,20.80
2019-02-09T10:03:13.725Z,20.23
2019-02-09T10:05:42.855Z,22.40
2019-02-09T10:08:11.928Z,21.63
2019-02-09T10:10:41.004Z,21.70
2019-02-09T10:13:10.061Z,22.57
2019-02-09T10:15:39.121Z,24.27
2019-02-09T10:18:08.251Z,17.23
2019-02-09T10:20:37.319Z,16.97
2019-02-09T10:23:06.386Z,15.63
2019-02-09T10:25:35.449Z,20.40
2019-02-09T10:28:04.593Z,16.93
2019-02-09T10:30:35.259Z,15.33
2019-02-09T10:33:04.339Z,27.57
2019-02-09T10:35:33.430Z,22.30
2019-02-09T10:38:02.549Z,16.37
2019-02-09T10:40:37.044Z,17.80
2019-02-09T10:43:07.940Z,20.97
2019-02-09T10:45:37.009Z,17.83
2019-02-09T10:48:07.508Z,23.13
2019-02-09T10:50:47.602Z,21.53
2019-02-09T10:53:16.660Z,18.60
2019-02-09T10:55:45.728Z,28.40
2019-02-09T10:58:14.812Z,17.60
2019-02-09T11:00:53.959Z,20.63
2019-02-09T11:03:23.040Z,17.93
2019-02-09T11:05:52.112Z,11.63
2019-02-09T11:08:21.174Z,13.47
2019-02-09T11:10:50.259Z,19.47
2019-02-09T11:13:19.323Z,21.93
2019-02-09T11:15:48.663Z,20.03
2019-02-09T11:18:17.734Z,22.83
2019-02-09T11:20:46.901Z,20.63
2019-02-09T11:23:16.000Z,14.20
2019-02-09T11:25:45.062Z,13.57
2019-02-09T11:28:14.129Z,16.17
2019-02-09T11:30:43.196Z,15.97
2019-02-09T11:33:12.267Z,18.57
2019-02-09T11:35:41.335Z,13.00
2019-02-09T11:38:10.397Z,19.47
2019-02-09T11:40:39.480Z,15.27
2019-02-09T11:43:08.541Z,11.70
2019-02-09T11:45:37.734Z,15.30
2019-02-09T11:48:07.338Z,13.63
2019-02-09T11:50:36.402Z,12.20
2019-02-09T11:53:05.743Z,20.63
2019-02-09T11:55:34.801Z,15.07
2019-02-09T11:58:03.970Z,16.10
2019-02-09T12:00:49.342Z,11.30
2019-02-09T12:03:18.422Z,13.60
2019-02-09T12:05:47.492Z,13.80
2019-02-09T12:08:16.552Z,13.07
2019-02-09T12:10:45.619Z,11.67
2019-02-09T12:13:14.683Z,13.77
2019-02-09T12:15:43.744Z,12.47
2019-02-09T12:18:15.015Z,15.80
2019-02-09T12:20:44.082Z,18.27
2019-02-09T12:23:13.164Z,21.67
2019-02-09T12:25:42.231Z,14.77
2019-02-09T12:28:12.800Z,14.63
2019-02-09T12:30:42.037Z,13.30
2019-02-09T12:33:12.805Z,10.80
2019-02-09T12:35:43.816Z,10.33
2019-02-09T12:38:13.097Z,17.90
2019-02-09T12:40:42.165Z,15.17
2019-02-09T12:43:11.237Z,15.70
2019-02-09T12:45:41.510Z,16.57
2019-02-09T12:48:11.591Z,18.57
2019-02-09T12:50:40.682Z,14.67
2019-02-09T12:53:09.715Z,12.73
2019-02-09T12:55:38.780Z,21.50
2019-02-09T12:58:07.926Z,16.80
2019-02-09T13:00:39.191Z,13.70
2019-02-09T13:03:22.265Z,12.77
2019-02-09T13:05:51.331Z,18.73
2019-02-09T13:08:20.398Z,14.50
2019-02-09T13:10:49.477Z,18.57
2019-02-09T13:13:18.547Z,15.63
2019-02-09T13:15:47.626Z,14.83
2019-02-09T13:18:16.699Z,14.77
2019-02-09T13:20:45.763Z,21.83
2019-02-09T13:23:14.830Z,21.33
2019-02-09T13:25:43.898Z,21.43
2019-02-09T13:28:12.964Z,17.70
2019-02-09T13:30:43.065Z,17.33
2019-02-09T13:33:12.138Z,15.37
2019-02-09T13:35:41.203Z,18.07
2019-02-09T13:38:10.272Z,14.03
2019-02-09T13:40:39.334Z,16.50
2019-02-09T13:43:08.402Z,14.17
2019-02-09T13:45:50.489Z,11.80
2019-02-09T13:48:19.559Z,11.37
2019-02-09T13:50:48.624Z,19.70
2019-02-09T13:53:17.685Z,14.73
2019-02-09T13:55:46.754Z,18.53
2019-02-09T13:58:15.820Z,17.33
2019-02-09T14:00:44.893Z,16.47
2019-02-09T14:03:14.293Z,20.83
2019-02-09T14:05:43.362Z,17.87
2019-02-09T14:08:12.429Z,11.53
2019-02-09T14:10:41.498Z,18.87
2019-02-09T14:13:14.716Z,12.00
2019-02-09T14:15:41.365Z,11.37
2019-02-09T14:18:11.563Z,17.73
2019-02-09T14:20:40.633Z,15.60
2019-02-09T14:23:09.693Z,17.30
2019-02-09T14:25:38.762Z,19.07
2019-02-09T14:28:07.969Z,13.27
2019-02-09T14:30:39.249Z,19.37
2019-02-09T14:33:11.543Z,31.43
2019-02-09T14:35:42.477Z,16.77
2019-02-09T14:38:11.566Z,13.77
2019-02-09T14:40:40.630Z,17.23
2019-02-09T14:43:10.404Z,18.90
2019-02-09T14:45:42.934Z,11.17
2019-02-09T14:48:12.170Z,10.90
2019-02-09T14:50:41.225Z,17.80
2019-02-09T14:53:10.364Z,15.53
2019-02-09T14:55:40.003Z,12.10
2019-02-09T14:58:09.440Z,14.90
2019-02-09T15:00:46.457Z,21.20
2019-02-09T15:03:16.037Z,23.00
2019-02-09T15:05:45.102Z,16.43
2019-02-09T15:08:14.168Z,17.73
2019-02-09T15:10:43.233Z,18.93
2019-02-09T15:13:13.506Z,18.23
2019-02-09T15:15:50.433Z,21.10
2019-02-09T15:18:19.569Z,14.70
2019-02-09T15:20:56.464Z,20.20
2019-02-09T15:23:25.537Z,16.60
2019-02-09T15:25:54.614Z,16.00
2019-02-09T15:28:23.695Z,20.93
2019-02-09T15:30:52.750Z,21.27
2019-02-09T15:33:21.818Z,18.33
2019-02-09T15:35:50.884Z,17.90
2019-02-09T15:38:21.129Z,27.07
2019-02-09T15:40:50.309Z,18.60
2019-02-09T15:43:19.373Z,18.97
2019-02-09T15:45:48.437Z,24.27
2019-02-09T15:48:17.507Z,15.17
2019-02-09T15:50:46.573Z,19.63
2019-02-09T15:53:15.642Z,16.50
2019-02-09T15:55:44.707Z,22.03
2019-02-09T15:58:13.773Z,26.93
2019-02-09T16:00:42.838Z,16.87
2019-02-09T16:03:11.910Z,18.53
2019-02-09T16:05:40.969Z,19.73
2019-02-09T16:08:10.037Z,20.93
2019-02-09T16:10:39.093Z,21.57
2019-02-09T16:13:08.159Z,13.50
2019-02-09T16:15:37.793Z,16.90
2019-02-09T16:18:07.026Z,15.93
2019-02-09T16:20:36.924Z,16.80
2019-02-09T16:23:06.331Z,24.93
2019-02-09T16:25:35.390Z,18.50
2019-02-09T16:28:04.452Z,15.07
2019-02-09T16:30:33.510Z,14.37
2019-02-09T16:33:02.845Z,15.93
2019-02-09T16:35:32.945Z,24.53
2019-02-09T16:38:02.009Z,14.33
2019-02-09T16:40:36.119Z,19.40
2019-02-09T16:43:06.257Z,25.10
2019-02-09T16:45:37.224Z,26.00
2019-02-09T16:48:08.806Z,17.27
2019-02-09T16:50:37.853Z,17.57
2019-02-09T16:53:07.386Z,16.83
2019-02-09T16:55:36.449Z,17.03
2019-02-09T16:58:06.654Z,14.77
2019-02-09T17:00:41.923Z,15.73
2019-02-09T17:03:12.490Z,18.20
2019-02-09T17:05:41.808Z,25.33
2019-02-09T17:08:10.892Z,18.33
2019-02-09T17:10:39.946Z,21.60
2019-02-09T17:13:09.278Z,19.20
2019-02-09T17:15:38.345Z,20.87
2019-02-09T17:18:08.214Z,17.67
2019-02-09T17:20:37.289Z,12.70
2019-02-09T17:23:06.686Z,24.27
2019-02-09T17:25:35.754Z,17.80
2019-02-09T17:28:05.090Z,17.50
2019-02-09T17:30:36.861Z,28.17
2019-02-09T17:33:06.426Z,29.10
2019-02-09T17:35:35.486Z,24.13
2019-02-09T17:38:06.558Z,23.90
2019-02-09T17:40:40.458Z,25.23
2019-02-09T17:43:09.865Z,27.13
2019-02-09T17:45:43.591Z,26.60
2019-02-09T17:48:12.656Z,21.93
2019-02-09T17:50:41.718Z,23.47
2019-02-09T17:53:10.788Z,19.57
2019-02-09T17:55:39.845Z,23.80
2019-02-09T17:58:08.912Z,25.97
2019-02-09T18:00:45.450Z,26.10
2019-02-09T18:03:14.517Z,21.30
2019-02-09T18:05:43.576Z,13.43
2019-02-09T18:08:12.650Z,23.83
2019-02-09T18:10:41.706Z,17.43
2019-02-09T18:13:10.770Z,24.17
2019-02-09T18:15:39.834Z,22.23
2019-02-09T18:18:08.901Z,23.17
2019-02-09T18:20:37.960Z,20.40
2019-02-09T18:23:07.025Z,22.37
2019-02-09T18:25:36.086Z,21.40
2019-02-09T18:28:05.764Z,20.37
2019-02-09T18:30:34.964Z,25.37
2019-02-09T18:33:04.300Z,32.20
2019-02-09T18:35:33.357Z,25.33
2019-02-09T18:38:02.425Z,25.50
2019-02-09T18:40:31.484Z,23.57
2019-02-09T18:43:00.549Z,15.77
2019-02-09T18:45:31.740Z,18.03
2019-02-09T18:48:00.792Z,20.20
2019-02-09T18:50:32.937Z,25.53
2019-02-09T18:53:02.573Z,22.07
2019-02-09T18:55:31.926Z,21.07
2019-02-09T18:58:00.973Z,26.57
2019-02-09T19:00:37.169Z,17.40
2019-02-09T19:03:07.642Z,18.93
2019-02-09T19:05:36.702Z,23.17
2019-02-09T19:08:06.771Z,21.73
2019-02-09T19:10:35.902Z,17.93
2019-02-09T19:13:05.768Z,16.50
2019-02-09T19:15:35.000Z,14.97
2019-02-09T19:18:05.233Z,17.70
2019-02-09T19:20:54.373Z,16.33
2019-02-09T19:23:23.770Z,14.03
2019-02-09T19:25:52.829Z,16.50
2019-02-09T19:28:21.892Z,17.40
2019-02-09T19:30:50.957Z,14.73
2019-02-09T19:33:20.146Z,16.30
2019-02-09T19:35:49.189Z,18.63
2019-02-09T19:38:18.256Z,17.93
2019-02-09T19:40:47.314Z,15.40
2019-02-09T19:43:16.383Z,17.67
2019-02-09T19:45:45.441Z,16.00
2019-02-09T19:48:14.510Z,16.40
2019-02-09T19:50:43.566Z,22.27
2019-02-09T19:53:12.633Z,17.67
2019-02-09T19:55:41.972Z,23.37
2019-02-09T19:58:11.032Z,18.43
2019-02-09T20:00:49.884Z,14.30
2019-02-09T20:03:18.945Z,16.93
2019-02-09T20:05:48.008Z,12.70
2019-02-09T20:08:17.070Z,16.17
2019-02-09T20:10:46.454Z,18.10
2019-02-09T20:13:15.785Z,17.80
2019-02-09T20:15:44.848Z,16.10
2019-02-09T20:18:13.911Z,21.23
2019-02-09T20:20:47.307Z,24.47
2019-02-09T20:23:13.761Z,14.03
2019-02-09T20:25:42.821Z,16.60
2019-02-09T20:28:11.881Z,23.07
2019-02-09T20:30:42.752Z,14.13
2019-02-09T20:33:12.123Z,19.07
2019-02-09T20:35:41.182Z,13.93
2019-02-09T20:38:10.245Z,14.33
2019-02-09T20:40:52.841Z,20.57
2019-02-09T20:43:22.873Z,24.13
2019-02-09T20:45:52.203Z,16.40
2019-02-09T20:48:21.265Z,18.03
2019-02-09T20:50:50.326Z,16.87
2019-02-09T20:53:19.461Z,14.13
2019-02-09T20:55:48.553Z,15.93
2019-02-09T20:58:17.617Z,11.90
2019-02-09T21:00:46.953Z,21.70
2019-02-09T21:03:16.084Z,17.77
2019-02-09T21:05:45.144Z,15.50
2019-02-09T21:08:14.216Z,20.47
2019-02-09T21:10:45.888Z,16.30
2019-02-09T21:13:14.962Z,20.27
2019-02-09T21:15:44.035Z,16.63
2019-02-09T21:18:13.093Z,17.50
2019-02-09T21:20:42.159Z,15.20
2019-02-09T21:23:11.221Z,10.17
2019-02-09T21:25:48.298Z,15.50
2019-02-09T21:28:17.358Z,14.03
2019-02-09T21:30:46.417Z,18.30
2019-02-09T21:33:15.479Z,16.97
2019-02-09T21:35:44.616Z,18.63
2019-02-09T21:38:13.634Z,21.83
2019-02-09T21:40:42.689Z,19.40
2019-02-09T21:43:11.750Z,13.40
2019-02-09T21:45:45.468Z,17.83
2019-02-09T21:48:11.601Z,17.40
2019-02-09T21:50:40.666Z,16.23
2019-02-09T21:53:09.726Z,14.07
2019-02-09T21:55:38.792Z,16.63
2019-02-09T21:58:08.899Z,12.87
2019-02-09T22:00:45.805Z,12.63
2019-02-09T22:03:15.245Z,15.47
2019-02-09T22:05:51.505Z,16.37
2019-02-09T22:08:19.668Z,12.13
2019-02-09T22:10:48.444Z,13.47
2019-02-09T22:13:17.506Z,17.10
2019-02-09T22:15:46.575Z,14.77
2019-02-09T22:18:15.626Z,12.97
2019-02-09T22:20:52.300Z,11.97
2019-02-09T22:23:15.804Z,15.37
2019-02-09T22:25:44.867Z,11.23
2019-02-09T22:28:13.926Z,11.53
2019-02-09T22:30:43.017Z,20.80
2019-02-09T22:33:12.131Z,8.87
2019-02-09T22:35:41.226Z,8.03
2019-02-09T22:38:10.248Z,11.87
2019-02-09T22:40:41.246Z,14.87
2019-02-09T22:43:11.072Z,12.33
2019-02-09T22:45:40.131Z,12.43
2019-02-09T22:48:10.132Z,15.80
2019-02-09T22:50:45.147Z,13.90
2019-02-09T22:53:14.208Z,10.93
2019-02-09T22:55:43.269Z,10.23
2019-02-09T22:58:12.330Z,17.40
2019-02-09T23:01:00.796Z,9.03
2019-02-09T23:03:40.509Z,11.73
2019-02-09T23:06:14.457Z,11.33
2019-02-09T23:08:55.949Z,11.47
2019-02-09T23:11:25.289Z,8.50
2019-02-09T23:13:54.629Z,14.70
2019-02-09T23:16:23.964Z,11.10
2019-02-09T23:18:53.301Z,9.30
2019-02-09T23:21:22.640Z,12.60
2019-02-09T23:23:51.973Z,11.73
2019-02-09T23:26:21.308Z,12.17
2019-02-09T23:28:50.645Z,12.00
2019-02-09T23:31:19.982Z,11.23
2019-02-09T23:33:49.318Z,15.50
2019-02-09T23:36:18.652Z,11.33
2019-02-09T23:38:47.985Z,14.70
2019-02-09T23:41:17.326Z,10.13
2019-02-09T23:43:46.659Z,8.87
2019-02-09T23:46:15.997Z,11.47
2019-02-09T23:48:46.005Z,15.97
2019-02-09T23:51:15.342Z,12.17
2019-02-09T23:53:44.676Z,11.43
2019-02-09T23:56:14.012Z,11.90
2019-02-09T23:58:43.403Z,11.37
